Teniente Alejandro Velasco Astete International Airport
SPZO : rendu visible

Aérodrome :











RETROUVEZ-NOUS SUR...

 
LOGIN :

S'inscrire | Disclaimer

   EN    FR    IT 

 









Légende :    VFR   VFR Marginal   IFR   IFR Intensif   IFR Très Intensif
Visi : 
Plafond : 
>= 8 km
>= 3000ft
5 à 8 km
1000 à 3000 ft
1500m à 5 km
500 à 1000 ft
800 à 1500m
200 à 500 ft
< 800m
< 200 ft
Symboles :   Orages  Brouillard  Fortes neiges  Fortes précipitations  Vent > 20 kt






- Altitude de l'aérodrome : 10860 ft
- Code IATA : CUZ


SPZO - Teniente Alejandro Velasco Astete International

DERNIER METAR :
  • 241730Z VRB03KT 9999 SCT043 SCT100 20/06 Q1030 NOSIG RMK BIRD HAZARD RWY 28

METARs EXPIRÉS :
  • 241700Z 34002KT 9999 SCT040 SCT100 19/08 Q1031 NOSIG RMK BIRD HAZARD RWY 28 PP000
  • 241630Z 31005KT 9999 SCT040 BKN100 18/06 Q1032 NOSIG RMK BIRD HAZARD RWY 28
  • 241600Z 33004KT 9999 SCT040 BKN100 17/07 Q1032 NOSIG RMK BIRD HAZARD RWY 28 PP000
  • 241530Z 32004KT 9999 SCT043 BKN080 17/09 Q1033 NOSIG RMK BIRD HAZARD RWY 28
  • 241500Z 09002KT 9999 SCT036 BKN080 15/08 Q1033 NOSIG RMK BIRD HAZARD RWY 28 PP000

TAF TAF SPZO
Valide du 24 à 18h jusqu'au 25 à 18h UTC


241700Z 2418/2518 35005KT 9999 SCT040 BKN080 TX21/2419Z TN09/2511Z
TEMPO 2508/2512 DZ FEW020 SCT030 BKN080



MET'MAP, la Météo Aéronautique d'un coup d'oeil ! - Copyright ORBIFLY Décembre 2007 - Disclaimer

ORBIFLY MET'MAP TEAM :

Programmation & Développement : Alexandra Zaïnal
Sur une idée originale de : Baudouin d'Aumeries
Assistance à la programmation : Marc-Olivier Méhu
Soutien technique & logistique : Manuel Goepfert

Contact : metmap@orbifly.com




SOURCES & CREDITS :

   NOAA       Earth
Advisory